Terminal Aerodrome Forecast
Issued by NWS Upton, NY

Home | Current Version | Previous Version | Text Only | Print | Product List | Glossary On
Versions: 1 2 3 4 5 6 7 8 9 10 11 12 13 14 15 16 17 18 19 20 21 22 23 24 25 26 27 28 29 30 31 32 33 34
000
FTUS41 KOKX 262300
TAFISP
TAF
KISP 262323Z 2700/2724 36025G35KT 6SM -RA BR OVC009
      TEMPO 2702/2704 1SM -RASN BR
     FM270400 33015G25KT 6SM -RASN OVC010
      TEMPO 2704/2706 1SM -SN BR OVC009
     FM270600 32010KT P6SM BKN025 BKN100
     FM271100 31008KT P6SM BKN030=

USA.gov is the U.S. government's official web portal to all federal, state and local government web resources and services.